Time;durP1;ratioP1;P1;durP2;ratioP2;P2;SDS_P1;SDS_P2;PMS_P1;PMS_P2;Temp;Humidity;BMP_temperature;BMP_pressure;BME280_temperature;BME280_humidity;BME280_pressure;Samples;Min_cycle;Max_cycle;Signal;HPM_P1;HPM_P2
2022/11/03 00:01:06;;;;;;;12.57;2.45;;;;;;;11.59;100.00;101317.44;2614161;36;20026;-54
2022/11/03 00:03:34;;;;;;;8.53;2.03;;;;;;;11.62;100.00;101309.09;2614150;36;20042;-56
2022/11/03 00:06:09;;;;;;;10.75;3.05;;;;;;;11.77;100.00;101306.91;2615444;36;20026;-55
2022/11/03 00:08:40;;;;;;;7.13;2.15;;;;;;;11.73;100.00;101303.63;2615373;36;20582;-58
2022/11/03 00:11:13;;;;;;;6.80;1.85;;;;;;;11.75;100.00;101292.72;2614403;36;20022;-58
2022/11/03 00:13:43;;;;;;;11.38;2.22;;;;;;;11.64;100.00;101285.53;2614844;31;20038;-53
2022/11/03 00:16:13;;;;;;;12.52;2.85;;;;;;;11.65;100.00;101272.91;2614137;31;20022;-55
2022/11/03 00:18:42;;;;;;;11.63;2.63;;;;;;;11.56;100.00;101261.94;2614616;36;20546;-51
2022/11/03 00:21:12;;;;;;;9.27;2.70;;;;;;;11.78;100.00;101281.66;2615370;36;20081;-56
2022/11/03 00:23:42;;;;;;;10.63;3.75;;;;;;;11.88;100.00;101258.28;2614198;36;20071;-54
2022/11/03 00:26:15;;;;;;;6.80;1.98;;;;;;;11.92;100.00;101262.44;2614148;31;20034;-56
2022/11/03 00:28:46;;;;;;;9.95;2.10;;;;;;;11.79;100.00;101263.63;2614544;36;20543;-51
2022/11/03 00:31:16;;;;;;;14.02;2.40;;;;;;;11.88;100.00;101257.41;2613554;36;20066;-55
2022/11/03 00:33:45;;;;;;;10.77;1.95;;;;;;;11.76;100.00;101243.16;2612783;36;20592;-55
2022/11/03 00:36:15;;;;;;;8.65;2.10;;;;;;;11.77;100.00;101252.97;2613614;36;20053;-55
2022/11/03 00:38:44;;;;;;;12.50;2.70;;;;;;;11.75;100.00;101246.88;2614374;36;20042;-55
2022/11/03 00:41:15;;;;;;;;;;;;;;;11.82;100.00;101231.84;2614078;36;20050;-53
2022/11/03 00:43:44;;;;;;;10.18;1.83;;;;;;;11.89;100.00;101219.50;2614758;31;19946;-54
2022/11/03 00:46:12;;;;;;;12.55;2.83;;;;;;;11.77;100.00;101223.31;2613667;31;20061;-52
2022/11/03 00:48:41;;;;;;;12.63;2.30;;;;;;;11.70;100.00;101217.63;2613614;36;20029;-58
2022/11/03 00:51:11;;;;;;;8.90;1.95;;;;;;;11.73;100.00;101227.25;2613477;31;20034;-55
2022/11/03 00:53:42;;;;;;;13.93;2.25;;;;;;;11.72;100.00;101209.38;2614757;36;20030;-54
2022/11/03 00:56:15;;;;;;;12.23;1.92;;;;;;;11.90;100.00;101217.69;2615823;31;20030;-57
2022/11/03 00:58:44;;;;;;;9.18;1.85;;;;;;;11.91;100.00;101209.47;2614680;36;20419;-55
2022/11/03 01:01:15;;;;;;;5.97;2.17;;;;;;;11.99;100.00;101222.28;2612642;36;20046;-58
2022/11/03 01:06:48;;;;;;;6.65;1.60;;;;;;;11.96;100.00;101216.31;2613455;36;20038;-55
2022/11/03 01:09:14;;;;;;;7.32;2.00;;;;;;;11.69;100.00;101205.09;2614310;31;20462;-57
2022/11/03 01:11:53;;;;;;;5.57;1.70;;;;;;;11.78;100.00;101192.66;2613338;36;20034;-52
2022/11/03 01:14:21;;;;;;;10.00;2.63;;;;;;;11.88;100.00;101188.16;2612715;36;20038;-53
2022/11/03 01:16:50;;;;;;;7.65;1.80;;;;;;;11.87;100.00;101191.84;2614059;36;20053;-53
2022/11/03 01:19:18;;;;;;;11.23;2.33;;;;;;;11.83;100.00;101190.38;2612915;36;20031;-59
2022/11/03 01:21:46;;;;;;;8.77;1.80;;;;;;;11.86;100.00;101181.19;2614225;36;20447;-56
2022/11/03 01:24:14;;;;;;;10.65;2.25;;;;;;;11.87;100.00;101183.75;2612775;36;20026;-56
2022/11/03 01:26:45;;;;;;;10.23;2.15;;;;;;;11.97;100.00;101186.50;2613690;36;20037;-54
2022/11/03 01:29:14;;;;;;;9.10;2.03;;;;;;;12.02;100.00;101176.16;2612594;31;20034;-56
2022/11/03 01:31:42;;;;;;;5.30;1.90;;;;;;;12.04;100.00;101174.19;2614029;36;20038;-55
2022/11/03 01:34:15;;;;;;;4.20;1.70;;;;;;;12.04;100.00;101171.50;2613934;36;20335;-55
2022/11/03 01:36:44;;;;;;;8.63;1.73;;;;;;;12.04;100.00;101182.28;2612699;36;20030;-55
2022/11/03 01:39:13;;;;;;;11.52;2.28;;;;;;;12.00;100.00;101163.78;2613700;36;20049;-55
2022/11/03 01:41:42;;;;;;;6.30;1.85;;;;;;;12.11;100.00;101171.78;2614323;36;20038;-54
2022/11/03 01:44:25;;;;;;;;;;;;;;;12.04;100.00;101166.09;2614530;36;20030;-56
2022/11/03 01:47:02;;;;;;;8.20;1.75;;;;;;;12.16;100.00;101164.13;2613542;36;20359;-57
2022/11/03 01:49:37;;;;;;;8.65;1.67;;;;;;;12.08;100.00;101145.91;2613552;36;20041;-55
2022/11/03 01:52:11;;;;;;;13.52;2.60;;;;;;;12.04;100.00;101143.63;2614047;36;20042;-57
2022/11/03 01:54:42;;;;;;;13.23;2.20;;;;;;;12.07;100.00;101149.63;2614401;36;20455;-57
2022/11/03 01:57:15;;;;;;;11.50;2.88;;;;;;;12.03;100.00;101144.66;2613946;31;20031;-56
2022/11/03 01:59:44;;;;;;;7.40;2.78;;;;;;;12.06;100.00;101149.75;2614692;36;20463;-55
2022/11/03 02:09:34;;;;;;;9.23;2.33;;;;;;;11.94;100.00;101129.28;2612058;36;20030;-57
2022/11/03 02:12:09;;;;;;;5.88;1.88;;;;;;;11.82;100.00;101123.97;2612899;36;20070;-55
2022/11/03 02:14:40;;;;;;;10.43;2.22;;;;;;;11.89;100.00;101125.09;2612984;31;20049;-59
2022/11/03 02:17:15;;;;;;;5.25;1.77;;;;;;;11.81;100.00;101124.13;2613249;36;20034;-58
2022/11/03 02:19:47;;;;;;;8.55;2.28;;;;;;;11.86;100.00;101114.59;2612183;36;20033;-56
2022/11/03 02:22:44;;;;;;;7.82;1.90;;;;;;;11.78;100.00;101122.53;2612796;36;20035;-54
2022/11/03 02:25:21;;;;;;;9.50;1.80;;;;;;;11.80;100.00;101119.72;2596464;36;20041;-56
2022/11/03 02:27:51;;;;;;;12.38;2.20;;;;;;;11.77;100.00;101120.84;2608933;36;20046;-54
2022/11/03 02:30:20;;;;;;;11.30;2.10;;;;;;;11.73;100.00;101122.09;2613166;36;20042;-55
2022/11/03 02:32:56;;;;;;;9.97;2.43;;;;;;;11.80;100.00;101112.47;2613979;36;20019;-53
2022/11/03 02:35:32;;;;;;;8.45;2.17;;;;;;;11.81;100.00;101105.25;2614039;36;20416;-56
2022/11/03 02:38:05;;;;;;;9.85;2.20;;;;;;;11.74;100.00;101094.97;2614393;31;20105;-55
2022/11/03 02:40:37;;;;;;;6.88;1.73;;;;;;;11.78;100.00;101100.09;2613079;36;20019;-54
2022/11/03 02:43:10;;;;;;;7.25;2.17;;;;;;;11.68;100.00;101094.69;2613108;31;20062;-54
2022/11/03 02:45:40;;;;;;;13.15;2.67;;;;;;;11.72;100.00;101109.63;2613369;36;20073;-59
2022/11/03 02:48:09;;;;;;;8.50;2.15;;;;;;;11.75;100.00;101085.06;2614687;31;20034;-57
2022/11/03 02:50:37;;;;;;;;;;;;;;;11.72;100.00;101096.97;2613700;31;20026;-53
2022/11/03 02:53:05;;;;;;;12.75;2.50;;;;;;;11.74;100.00;101088.75;2613535;36;19950;-55
2022/11/03 02:55:38;;;;;;;7.72;1.83;;;;;;;11.80;100.00;101087.34;2614766;36;20030;-56
2022/11/03 02:58:17;;;;;;;7.00;2.13;;;;;;;11.71;100.00;101079.09;2613819;36;20023;-54
2022/11/03 03:00:53;;;;;;;10.70;2.55;;;;;;;11.68;100.00;101065.03;2614020;36;20419;-54
2022/11/03 03:03:26;;;;;;;12.38;2.58;;;;;;;11.71;100.00;101068.31;2614368;36;20030;-53
2022/11/03 03:05:59;;;;;;;15.90;4.38;;;;;;;11.65;100.00;101062.63;2613249;36;20029;-56
2022/11/03 03:08:30;;;;;;;14.68;3.22;;;;;;;11.77;100.00;101061.50;2614132;36;20022;-56
2022/11/03 03:11:02;;;;;;;7.93;3.03;;;;;;;11.66;100.00;101064.31;2614443;36;20039;-52
2022/11/03 03:13:35;;;;;;;13.57;3.00;;;;;;;11.60;100.00;101056.78;2615139;31;20694;-55
2022/11/03 03:16:13;;;;;;;9.68;3.08;;;;;;;11.60;100.00;101059.47;2614031;36;20057;-55
2022/11/03 03:18:49;;;;;;;11.90;3.83;;;;;;;11.60;100.00;101051.38;2615224;36;20019;-55
2022/11/03 03:21:22;;;;;;;9.60;2.85;;;;;;;11.71;100.00;101056.66;2614937;36;20130;-52
2022/11/03 03:23:56;;;;;;;13.80;3.45;;;;;;;11.77;100.00;101053.41;2613672;36;20023;-55
2022/11/03 03:26:31;;;;;;;10.02;2.53;;;;;;;11.63;100.00;101043.03;2613905;31;20049;-54
2022/11/03 03:29:07;;;;;;;11.48;2.85;;;;;;;11.68;100.00;101035.38;2614400;36;20039;-53
2022/11/03 03:31:39;;;;;;;13.55;3.00;;;;;;;11.69;100.00;101037.06;2613518;36;20438;-54
2022/11/03 03:34:09;;;;;;;15.00;4.25;;;;;;;11.78;100.00;101030.84;2615785;36;20349;-51
2022/11/03 03:36:40;;;;;;;12.10;3.15;;;;;;;11.83;100.00;101025.03;2614114;31;20562;-53
2022/11/03 03:39:10;;;;;;;12.80;3.28;;;;;;;11.81;100.00;101030.56;2613119;36;20552;-56
2022/11/03 03:41:40;;;;;;;15.98;3.35;;;;;;;11.77;100.00;101023.75;2615319;36;20034;-55
2022/11/03 03:44:13;;;;;;;15.02;3.20;;;;;;;11.85;100.00;101026.63;2615090;36;20536;-56
2022/11/03 03:46:46;;;;;;;11.88;3.13;;;;;;;11.85;100.00;101021.22;2613607;36;20035;-50
2022/11/03 03:49:15;;;;;;;11.00;2.80;;;;;;;11.91;100.00;101019.78;2614220;36;20539;-52
2022/11/03 03:51:44;;;;;;;9.95;2.60;;;;;;;11.86;100.00;101017.50;2614922;36;20446;-52
2022/11/03 03:54:13;;;;;;;8.38;2.55;;;;;;;11.90;100.00;101018.94;2614118;36;20023;-54
2022/11/03 03:56:45;;;;;;;11.57;3.10;;;;;;;11.91;100.00;101007.16;2614650;36;20540;-55
2022/11/03 03:59:16;;;;;;;12.45;3.08;;;;;;;11.97;100.00;100997.69;2615005;36;20031;-51
2022/11/03 04:01:44;;;;;;;9.68;3.10;;;;;;;12.09;100.00;101006.50;2614078;36;20442;-50
2022/11/03 04:04:13;;;;;;;9.40;3.13;;;;;;;12.04;100.00;101000.66;2614148;36;20027;-55
2022/11/03 04:06:41;;;;;;;12.07;3.33;;;;;;;11.89;100.00;100987.56;2613647;36;20649;-52
2022/11/03 04:09:10;;;;;;;12.52;3.92;;;;;;;12.00;100.00;100991.13;2614995;31;20416;-55
2022/11/03 04:22:25;;;;;;;11.98;3.60;;;;;;;11.70;100.00;100983.03;2613805;36;21959;-56
2022/11/03 04:24:54;;;;;;;11.00;3.30;;;;;;;11.60;100.00;100984.00;2614384;36;20030;-55
2022/11/03 04:27:34;;;;;;;11.55;3.33;;;;;;;11.61;100.00;100975.75;2612887;36;20042;-55
2022/11/03 04:30:14;;;;;;;11.18;3.95;;;;;;;11.71;100.00;100986.56;2613521;31;20062;-56
2022/11/03 04:32:43;;;;;;;14.32;4.07;;;;;;;11.66;100.00;100999.59;2612971;31;20038;-56
2022/11/03 04:35:19;;;;;;;14.15;3.78;;;;;;;11.66;100.00;100991.50;2614679;36;20404;-59
2022/11/03 04:37:53;;;;;;;16.13;3.50;;;;;;;11.57;100.00;100975.19;2612447;36;20022;-53
2022/11/03 04:40:21;;;;;;;12.95;3.17;;;;;;;11.63;100.00;100984.59;2613987;36;20031;-55
2022/11/03 04:42:49;;;;;;;14.35;3.30;;;;;;;11.66;100.00;100972.63;2614778;36;20045;-52
2022/11/03 04:45:25;;;;;;;15.98;3.42;;;;;;;11.64;100.00;100980.03;2613502;36;20038;-54
2022/11/03 04:47:54;;;;;;;11.35;3.53;;;;;;;11.69;100.00;100977.75;2613716;36;20034;-55
2022/11/03 04:50:25;;;;;;;11.35;2.95;;;;;;;11.60;100.00;100978.59;2614762;36;20042;-56
2022/11/03 04:52:57;;;;;;;14.25;2.95;;;;;;;11.66;100.00;100961.84;2613408;36;20551;-56
2022/11/03 04:55:27;;;;;;;12.68;2.72;;;;;;;11.58;100.00;100971.50;2614919;36;20614;-55
2022/11/03 04:58:01;;;;;;;11.13;2.20;;;;;;;11.54;100.00;100967.41;2612457;36;20053;-55
2022/11/03 05:00:32;;;;;;;10.40;2.65;;;;;;;11.49;100.00;100958.88;2609872;36;20622;-53
2022/11/03 05:03:01;;;;;;;11.40;2.78;;;;;;;11.66;100.00;100956.47;2614458;31;20539;-55
2022/11/03 05:05:29;;;;;;;10.00;2.65;;;;;;;11.63;100.00;100946.84;2614465;36;20030;-54
2022/11/03 05:08:00;;;;;;;7.97;2.17;;;;;;;11.55;100.00;100958.28;2611628;36;20034;-52
2022/11/03 05:10:30;;;;;;;9.48;2.10;;;;;;;11.57;100.00;100940.16;2615690;36;20586;-54
2022/11/03 05:13:01;;;;;;;10.13;2.20;;;;;;;11.63;100.00;100964.84;2614640;36;20031;-54
2022/11/03 05:15:36;;;;;;;9.25;2.47;;;;;;;11.53;100.00;100941.44;2614055;36;20038;-57
2022/11/03 05:18:16;;;;;;;6.25;2.22;;;;;;;11.57;100.00;100941.97;2614376;36;20038;-54
2022/11/03 05:20:49;;;;;;;11.73;2.50;;;;;;;11.54;100.00;100940.44;2614329;36;20046;-54
2022/11/03 05:23:18;;;;;;;10.93;2.63;;;;;;;11.57;100.00;100932.06;2613755;36;20030;-57
2022/11/03 05:25:49;;;;;;;10.38;2.88;;;;;;;11.61;100.00;100923.69;2613856;36;20557;-55
2022/11/03 05:28:23;;;;;;;8.73;2.08;;;;;;;11.62;100.00;100918.16;2614009;36;20042;-55
2022/11/03 05:30:54;;;;;;;10.43;2.15;;;;;;;11.65;100.00;100915.19;2613695;36;20550;-60
2022/11/03 05:33:28;;;;;;;12.05;2.53;;;;;;;11.72;100.00;100918.19;2613733;36;20064;-56
2022/11/03 05:35:58;;;;;;;7.68;2.50;;;;;;;11.69;100.00;100907.66;2614665;36;20049;-55
2022/11/03 05:38:27;;;;;;;8.15;2.72;;;;;;;11.71;100.00;100902.97;2613116;36;20057;-53
2022/11/03 05:40:55;;;;;;;7.93;2.47;;;;;;;11.68;100.00;100900.56;2613275;36;20056;-55
2022/11/03 05:43:24;;;;;;;8.35;2.85;;;;;;;11.68;100.00;100908.66;2615405;31;20030;-53
2022/11/03 05:45:58;;;;;;;9.90;2.58;;;;;;;11.75;100.00;100904.41;2614515;36;20554;-55
2022/11/03 05:48:33;;;;;;;10.95;3.97;;;;;;;11.67;100.00;100899.69;2613587;36;20558;-55
2022/11/03 05:51:04;;;;;;;13.00;3.25;;;;;;;11.63;100.00;100892.03;2615445;31;20030;-53
2022/11/03 05:53:37;;;;;;;11.35;3.05;;;;;;;11.68;100.00;100889.78;2613033;36;20447;-55
2022/11/03 05:56:08;;;;;;;9.02;2.90;;;;;;;11.63;100.00;100883.97;2613868;31;20049;-53
2022/11/03 05:58:38;;;;;;;9.55;3.53;;;;;;;11.74;100.00;100890.06;2613649;36;20030;-56
2022/11/03 06:01:18;;;;;;;10.15;3.10;;;;;;;11.90;100.00;100905.66;2611960;36;20559;-54
2022/11/03 06:03:48;;;;;;;11.95;2.80;;;;;;;11.68;100.00;100879.00;2614957;31;20867;-56
2022/11/03 06:06:20;;;;;;;10.50;3.42;;;;;;;11.70;100.00;100877.00;2614168;36;20031;-54
2022/11/03 06:08:49;;;;;;;12.13;2.90;;;;;;;11.80;100.00;100877.84;2612952;31;20528;-55
2022/11/03 06:11:24;;;;;;;4.95;2.50;;;;;;;11.85;100.00;100880.97;2612128;36;20034;-57
2022/11/03 06:13:52;;;;;;;13.00;3.30;;;;;;;11.78;100.00;100871.75;2612304;36;20058;-54
2022/11/03 06:16:39;;;;;;;13.23;3.08;;;;;;;11.71;100.00;100866.06;2612535;36;20053;-58
2022/11/03 06:19:32;;;;;;;11.57;3.35;;;;;;;11.78;100.00;100881.66;2611451;36;20034;-52
2022/11/03 06:22:07;;;;;;;8.10;2.88;;;;;;;11.89;100.00;100868.88;2611195;36;20791;-55
2022/11/03 06:24:36;;;;;;;11.98;2.60;;;;;;;11.80;100.00;100877.00;2612256;36;20035;-57
2022/11/03 06:27:04;;;;;;;13.48;2.65;;;;;;;11.78;100.00;100860.97;2611694;36;20038;-54
2022/11/03 06:29:35;;;;;;;12.10;3.97;;;;;;;11.76;100.00;100854.84;2611074;36;20058;-56
2022/11/03 06:32:12;;;;;;;13.85;3.22;;;;;;;11.75;100.00;100845.09;2609343;36;20299;-56
2022/11/03 06:34:44;;;;;;;7.78;3.53;;;;;;;11.89;100.00;100849.16;2613194;31;20038;-55
2022/11/03 06:37:20;;;;;;;12.15;4.22;;;;;;;11.98;100.00;100842.09;2612950;36;20034;-55
2022/11/03 06:39:49;;;;;;;10.85;3.58;;;;;;;11.95;100.00;100847.78;2613269;36;20045;-52
2022/11/03 06:42:18;;;;;;;;;;;;;;;11.85;100.00;100826.16;2614898;31;20404;-51
2022/11/03 06:44:49;;;;;;;9.07;3.22;;;;;;;11.86;100.00;100831.41;2615201;36;19972;-58
2022/11/03 06:47:24;;;;;;;12.70;3.50;;;;;;;11.92;100.00;100830.00;2613985;36;20054;-56
2022/11/03 06:49:53;;;;;;;17.80;4.13;;;;;;;11.90;100.00;100815.81;2614930;36;20062;-54
2022/11/03 06:52:32;;;;;;;11.95;3.55;;;;;;;11.94;100.00;100814.56;2614104;36;20562;-56
2022/11/03 06:55:24;;;;;;;14.55;3.58;;;;;;;11.92;100.00;100822.78;2611765;36;20484;-56
2022/11/03 06:57:56;;;;;;;13.95;3.83;;;;;;;11.99;100.00;100811.41;2612137;36;20041;-57
2022/11/03 07:00:27;;;;;;;13.40;4.20;;;;;;;11.90;100.00;100815.81;2612139;31;20038;-54
2022/11/03 07:03:04;;;;;;;12.00;3.75;;;;;;;11.96;100.00;100817.94;2610292;36;20577;-54
2022/11/03 07:05:34;;;;;;;15.10;4.03;;;;;;;12.01;100.00;100817.50;2612991;31;20031;-56
2022/11/03 07:08:05;;;;;;;18.60;4.57;;;;;;;12.11;100.00;100810.22;2610451;36;20030;-55
2022/11/03 07:10:35;;;;;;;10.70;3.42;;;;;;;12.13;100.00;100818.19;2585568;31;20069;-53
2022/11/03 07:13:16;;;;;;;9.75;3.17;;;;;;;12.15;100.00;100814.34;2605797;36;20035;-55
2022/11/03 07:15:45;;;;;;;11.73;3.92;;;;;;;12.08;100.00;100808.69;2607130;36;20058;-55
2022/11/03 07:18:21;;;;;;;;;;;;;;;12.16;100.00;100818.75;2607937;36;20030;-52
2022/11/03 07:20:50;;;;;;;11.48;2.97;;;;;;;12.23;100.00;100810.91;2606089;36;20054;-55
2022/11/03 07:23:22;;;;;;;10.32;3.20;;;;;;;12.24;100.00;100809.91;2606239;36;20066;-54
2022/11/03 07:25:53;;;;;;;9.07;3.50;;;;;;;12.30;100.00;100805.78;2610016;36;20034;-55
2022/11/03 07:28:27;;;;;;;14.35;3.28;;;;;;;12.35;100.00;100803.47;2607441;36;20442;-57
2022/11/03 07:30:55;;;;;;;13.20;2.72;;;;;;;12.33;100.00;100813.56;2608850;36;20038;-56
2022/11/03 07:33:29;;;;;;;10.45;3.47;;;;;;;12.43;100.00;100811.69;2606474;36;20488;-56
2022/11/03 07:35:59;;;;;;;13.48;4.22;;;;;;;12.40;100.00;100811.97;2606728;36;20034;-53
2022/11/03 07:38:29;;;;;;;9.35;2.60;;;;;;;12.43;100.00;100812.50;2606595;36;20533;-56
2022/11/03 07:41:00;;;;;;;9.10;3.25;;;;;;;12.41;100.00;100801.03;2607372;36;20031;-56
2022/11/03 07:43:32;;;;;;;12.27;3.92;;;;;;;12.46;100.00;100803.28;2606898;36;20054;-56
2022/11/03 07:46:03;;;;;;;11.50;3.83;;;;;;;12.57;100.00;100800.38;2606980;36;20535;-55
2022/11/03 07:48:40;;;;;;;8.38;3.53;;;;;;;12.65;100.00;100804.16;2606767;36;20038;-57
2022/11/03 07:51:21;;;;;;;12.90;3.85;;;;;;;12.60;100.00;100802.78;2607124;36;20030;-57
2022/11/03 07:53:53;;;;;;;9.60;3.30;;;;;;;12.59;100.00;100792.97;2606906;36;20039;-55
2022/11/03 07:56:23;;;;;;;13.60;3.50;;;;;;;12.68;100.00;100790.38;2607003;31;20038;-53
2022/11/03 07:58:53;;;;;;;16.48;3.13;;;;;;;12.71;100.00;100790.06;2610012;36;20026;-57
2022/11/03 08:01:28;;;;;;;9.35;2.85;;;;;;;12.75;100.00;100792.31;2612987;36;20161;-55
2022/11/03 08:04:03;;;;;;;14.48;3.70;;;;;;;12.79;100.00;100791.00;2614971;36;20423;-56
2022/11/03 08:06:31;;;;;;;11.77;3.47;;;;;;;12.76;100.00;100777.81;2614065;36;20107;-57
2022/11/03 08:09:00;;;;;;;12.25;3.45;;;;;;;12.90;100.00;100779.13;2614300;36;20030;-55
2022/11/03 08:11:28;;;;;;;9.80;3.65;;;;;;;12.95;100.00;100781.38;2608236;36;20031;-55
2022/11/03 08:13:56;;;;;;;11.40;3.50;;;;;;;13.03;100.00;100769.78;2605927;36;20581;-56
2022/11/03 08:16:24;;;;;;;10.43;3.42;;;;;;;12.89;100.00;100765.78;2614335;31;20042;-54
2022/11/03 08:18:53;;;;;;;13.05;3.58;;;;;;;12.87;100.00;100771.34;2609589;36;20057;-55
2022/11/03 08:21:24;;;;;;;10.57;3.25;;;;;;;13.08;100.00;100754.81;2605575;36;20447;-54
2022/11/03 08:23:52;;;;;;;13.32;3.55;;;;;;;12.98;100.00;100762.13;2605868;36;20045;-57
2022/11/03 08:26:21;;;;;;;12.40;3.35;;;;;;;12.94;100.00;100758.91;2605084;31;20037;-55
2022/11/03 08:28:49;;;;;;;8.38;3.35;;;;;;;13.00;100.00;100756.59;2605186;36;20031;-57
2022/11/03 08:31:18;;;;;;;12.30;3.17;;;;;;;13.03;100.00;100751.75;2607311;36;20034;-56
2022/11/03 08:33:46;;;;;;;9.23;2.97;;;;;;;13.06;100.00;100755.97;2604053;36;21299;-57
2022/11/03 08:36:14;;;;;;;11.60;3.17;;;;;;;13.10;100.00;100742.00;2604378;36;20232;-56
2022/11/03 08:38:45;;;;;;;11.23;3.00;;;;;;;13.20;100.00;100741.06;2601211;36;20300;-56
2022/11/03 08:41:14;;;;;;;10.43;3.63;;;;;;;13.15;100.00;100755.06;2608136;36;20053;-55
2022/11/03 08:43:42;;;;;;;8.18;3.03;;;;;;;13.01;100.00;100736.69;2608042;31;20041;-57
2022/11/03 08:46:10;;;;;;;10.90;2.77;;;;;;;13.14;100.00;100732.56;2606592;36;20073;-55
2022/11/03 08:48:39;;;;;;;11.77;3.07;;;;;;;13.29;100.00;100718.50;2607816;36;20038;-56
2022/11/03 08:51:09;;;;;;;11.73;3.28;;;;;;;13.20;100.00;100714.88;2607183;36;20026;-55
2022/11/03 08:53:37;;;;;;;10.55;3.45;;;;;;;13.30;100.00;100714.78;2607325;31;20035;-51
2022/11/03 08:56:08;;;;;;;10.57;3.07;;;;;;;13.23;100.00;100709.16;2607585;36;20034;-58
2022/11/03 08:58:37;;;;;;;13.07;2.78;;;;;;;13.33;100.00;100699.09;2607498;36;20061;-57
2022/11/03 09:01:06;;;;;;;9.27;3.05;;;;;;;13.30;100.00;100698.56;2606890;36;20034;-57
2022/11/03 09:03:34;;;;;;;;;;;;;;;13.36;100.00;100684.44;2607744;36;20038;-59
2022/11/03 09:06:03;;;;;;;11.30;3.30;;;;;;;13.46;100.00;100684.34;2607302;36;19950;-57
2022/11/03 09:08:31;;;;;;;10.13;3.23;;;;;;;13.39;100.00;100677.88;2609107;36;20031;-57
2022/11/03 09:11:00;;;;;;;13.43;3.65;;;;;;;13.58;100.00;100669.56;2606148;36;20034;-57
2022/11/03 09:13:30;;;;;;;10.05;3.60;;;;;;;13.55;100.00;100659.06;2599755;36;20042;-55
2022/11/03 09:15:59;;;;;;;10.55;3.00;;;;;;;13.56;100.00;100660.75;2608710;36;20042;-56
2022/11/03 09:18:27;;;;;;;8.57;2.67;;;;;;;13.77;100.00;100648.69;2607672;31;20752;-53
2022/11/03 09:20:55;;;;;;;8.52;2.45;;;;;;;13.72;100.00;100640.19;2606849;36;20038;-55
2022/11/03 09:23:24;;;;;;;10.10;2.10;;;;;;;13.89;100.00;100635.72;2600821;36;20046;-55
2022/11/03 09:25:52;;;;;;;10.02;2.63;;;;;;;14.05;100.00;100641.19;2608249;36;20045;-56
2022/11/03 09:28:20;;;;;;;7.13;3.03;;;;;;;14.12;100.00;100633.25;2607452;31;20035;-55
2022/11/03 09:30:51;;;;;;;8.13;3.40;;;;;;;14.18;100.00;100613.66;2608775;36;20054;-55
2022/11/03 09:33:19;;;;;;;9.00;2.63;;;;;;;14.42;100.00;100606.59;2606806;36;20049;-56
2022/11/03 09:35:48;;;;;;;6.87;2.57;;;;;;;14.47;100.00;100604.22;2607074;36;20030;-57
2022/11/03 09:38:16;;;;;;;8.00;2.90;;;;;;;14.50;100.00;100603.88;2606605;36;20023;-58
2022/11/03 09:40:44;;;;;;;10.30;3.22;;;;;;;14.51;100.00;100597.44;2606625;36;20642;-57
2022/11/03 09:43:13;;;;;;;13.43;3.63;;;;;;;14.53;100.00;100587.28;2606559;36;20034;-58
2022/11/03 09:45:41;;;;;;;7.65;3.30;;;;;;;14.59;100.00;100580.34;2607094;36;20046;-53
2022/11/03 09:48:15;;;;;;;9.75;3.88;;;;;;;14.52;100.00;100563.94;2607907;36;20058;-57
2022/11/03 09:50:43;;;;;;;7.22;2.50;;;;;;;14.66;100.00;100570.56;2609566;31;20097;-59
2022/11/03 09:53:13;;;;;;;10.85;3.33;;;;;;;14.56;100.00;100554.47;2606734;36;20034;-54
2022/11/03 09:55:41;;;;;;;7.32;2.20;;;;;;;14.59;100.00;100554.13;2615201;36;20034;-56
2022/11/03 09:58:15;;;;;;;10.03;2.30;;;;;;;14.52;100.00;100563.94;2616431;36;20022;-57
2022/11/03 10:00:44;;;;;;;6.93;2.22;;;;;;;14.50;100.00;100539.75;2616110;36;20053;-55
2022/11/03 10:03:19;;;;;;;11.65;2.67;;;;;;;14.81;100.00;100532.78;2616352;36;20022;-56
2022/11/03 10:05:49;;;;;;;4.97;2.50;;;;;;;14.73;100.00;100543.66;2616825;36;20038;-55
2022/11/03 10:08:24;;;;;;;10.98;2.25;;;;;;;14.71;100.00;100525.69;2615671;36;20157;-54
2022/11/03 10:10:54;;;;;;;9.57;2.70;;;;;;;14.73;100.00;100521.97;2616741;36;20042;-58
2022/11/03 10:13:25;;;;;;;;;;;;;;;14.79;100.00;100524.00;2616291;36;20027;-59
2022/11/03 10:15:53;;;;;;;6.90;2.25;;;;;;;14.73;100.00;100519.28;2616130;36;19942;-56
2022/11/03 10:18:25;;;;;;;12.43;4.18;;;;;;;15.01;100.00;100504.28;2616428;36;20448;-59
2022/11/03 10:20:54;;;;;;;10.80;2.50;;;;;;;15.09;100.00;100505.28;2615933;36;20528;-57
2022/11/03 10:23:22;;;;;;;9.37;2.63;;;;;;;15.15;100.00;100510.00;2601520;36;20042;-55
2022/11/03 10:25:51;;;;;;;9.43;2.60;;;;;;;15.01;100.00;100498.88;2607955;36;20042;-56
2022/11/03 10:28:22;;;;;;;10.07;2.17;;;;;;;15.17;100.00;100503.38;2608206;31;20342;-58
2022/11/03 10:30:56;;;;;;;10.32;2.70;;;;;;;15.17;100.00;100492.56;2602564;36;20061;-56
2022/11/03 10:33:35;;;;;;;9.35;2.53;;;;;;;15.04;100.00;100476.84;2607934;36;20038;-56
2022/11/03 10:36:05;;;;;;;;;;;;;;;14.99;100.00;100492.78;2608055;36;20038;-57
2022/11/03 10:38:35;;;;;;;11.68;3.00;;;;;;;14.91;100.00;100487.38;2613502;36;19946;-58
2022/11/03 10:41:13;;;;;;;9.25;2.95;;;;;;;14.86;100.00;100484.34;2617230;31;20485;-57
2022/11/03 10:43:42;;;;;;;12.27;3.00;;;;;;;15.01;100.00;100471.75;2617071;31;20030;-56
2022/11/03 10:46:13;;;;;;;9.18;2.63;;;;;;;14.90;100.00;100469.44;2615874;36;20038;-51
2022/11/03 10:48:44;;;;;;;12.13;2.55;;;;;;;14.97;100.00;100469.59;2615764;36;20582;-57
2022/11/03 10:51:14;;;;;;;5.15;2.22;;;;;;;15.20;100.00;100442.56;2617178;36;20432;-55
2022/11/03 10:53:44;;;;;;;7.60;1.95;;;;;;;15.18;100.00;100455.44;2611998;36;20546;-57
2022/11/03 10:56:12;;;;;;;7.70;2.47;;;;;;;14.78;100.00;100451.84;2607385;36;20397;-57
2022/11/03 10:58:40;;;;;;;6.88;2.58;;;;;;;14.89;100.00;100459.63;2607064;36;20026;-57
2022/11/03 11:01:12;;;;;;;9.95;2.72;;;;;;;14.93;100.00;100450.13;2607783;36;20455;-57
2022/11/03 11:03:46;;;;;;;7.63;2.42;;;;;;;14.87;100.00;100429.16;2607786;36;20463;-56
2022/11/03 11:06:22;;;;;;;7.40;3.10;;;;;;;15.02;100.00;100445.53;2606749;36;20045;-57
2022/11/03 11:08:53;;;;;;;10.68;3.28;;;;;;;14.84;100.00;100421.34;2606862;36;20049;-53
2022/11/03 11:11:23;;;;;;;6.15;2.17;;;;;;;14.83;100.00;100423.22;2607752;36;20411;-56
2022/11/03 11:14:21;;;;;;;7.50;2.10;;;;;;;14.89;100.00;100416.28;2608626;31;20034;-57
2022/11/03 11:16:51;;;;;;;9.53;2.50;;;;;;;15.04;100.00;100411.78;2605972;36;20050;-55
2022/11/03 11:19:22;;;;;;;5.10;2.30;;;;;;;15.03;100.00;100404.69;2607011;36;20079;-56
2022/11/03 11:22:02;;;;;;;11.00;1.95;;;;;;;14.89;100.00;100400.00;2606663;31;20061;-56
2022/11/03 11:25:00;;;;;;;10.45;2.10;;;;;;;14.98;100.00;100398.94;2604986;36;20578;-59
2022/11/03 11:28:07;;;;;;;9.05;2.38;;;;;;;15.00;100.00;100404.19;2608858;36;20586;-57
2022/11/03 11:30:59;;;;;;;9.10;2.25;;;;;;;14.93;100.00;100387.81;2601039;36;25120;-59
2022/11/03 11:33:30;;;;;;;5.72;2.20;;;;;;;15.10;100.00;100385.00;2607465;31;20057;-53
2022/11/03 11:36:23;;;;;;;7.03;2.25;;;;;;;15.11;100.00;100384.00;2608266;36;20564;-57
2022/11/03 11:39:02;;;;;;;11.07;2.83;;;;;;;15.11;100.00;100400.25;2599992;36;20042;-57
2022/11/03 11:42:00;;;;;;;8.70;2.80;;;;;;;15.03;100.00;100388.44;2610905;36;21280;-57
2022/11/03 11:45:00;;;;;;;6.40;2.03;;;;;;;15.12;100.00;100378.41;2606658;36;20034;-56
2022/11/03 11:47:44;;;;;;;6.10;2.05;;;;;;;14.96;100.00;100371.19;2606571;36;20022;-59
2022/11/03 11:50:23;;;;;;;8.35;2.25;;;;;;;15.01;100.00;100357.09;2607449;36;20162;-57
2022/11/03 11:52:59;;;;;;;6.57;2.33;;;;;;;14.97;100.00;100367.47;2606528;36;20061;-56
2022/11/03 11:55:33;;;;;;;7.03;2.10;;;;;;;15.05;100.00;100353.84;2608060;36;20232;-56
2022/11/03 11:58:03;;;;;;;5.47;1.77;;;;;;;15.16;100.00;100351.75;2614704;36;20146;-52